createdAt,value
2023-05-23T00:00:19.313Z,97.40
2023-05-23T00:02:49.739Z,97.70
2023-05-23T00:05:18.235Z,97.00
2023-05-23T00:07:46.571Z,97.50
2023-05-23T00:10:15.348Z,96.80
2023-05-23T00:12:43.558Z,95.90
2023-05-23T00:15:12.240Z,95.30
2023-05-23T00:17:40.530Z,96.30
2023-05-23T00:20:12.151Z,95.20
2023-05-23T00:22:43.196Z,98.10
2023-05-23T00:25:11.709Z,98.70
2023-05-23T00:27:39.915Z,97.40
2023-05-23T00:30:09.240Z,97.50
2023-05-23T00:32:38.020Z,96.40
2023-05-23T00:35:07.014Z,95.90
2023-05-23T00:37:36.545Z,95.80
2023-05-23T00:40:05.019Z,96.90
2023-05-23T00:42:33.957Z,96.00
2023-05-23T00:45:02.157Z,95.50
2023-05-23T00:47:30.724Z,96.80
2023-05-23T00:49:59.033Z,96.50
2023-05-23T00:52:27.499Z,94.80
2023-05-23T00:54:57.618Z,94.10
2023-05-23T00:57:25.904Z,95.60
2023-05-23T00:59:54.203Z,95.70
2023-05-23T01:02:22.875Z,95.00
2023-05-23T01:04:54.451Z,95.20
2023-05-23T01:07:22.787Z,94.80
2023-05-23T01:09:51.606Z,92.10
2023-05-23T01:12:30.897Z,92.80
2023-05-23T01:15:06.484Z,94.20
2023-05-23T01:17:42.257Z,97.60
2023-05-23T01:20:14.072Z,95.50
2023-05-23T01:23:01.485Z,95.40
2023-05-23T01:25:48.177Z,95.80
2023-05-23T01:28:20.905Z,98.20
2023-05-23T01:30:52.146Z,97.10
2023-05-23T01:33:23.835Z,96.60
2023-05-23T01:35:52.719Z,98.10
2023-05-23T01:38:20.905Z,97.30
2023-05-23T01:40:49.111Z,97.60
2023-05-23T01:43:18.754Z,98.70
2023-05-23T01:45:47.296Z,97.70
2023-05-23T01:48:16.990Z,96.90
2023-05-23T01:50:46.487Z,98.70
2023-05-23T01:53:16.938Z,99.10
2023-05-23T01:55:45.254Z,96.70
2023-05-23T01:58:13.671Z,97.20
2023-05-23T02:00:43.231Z,96.70
2023-05-23T02:03:11.781Z,97.40
2023-05-23T02:05:40.507Z,97.70
2023-05-23T02:08:08.928Z,95.10
2023-05-23T02:10:37.106Z,97.50
2023-05-23T02:13:05.261Z,96.30
2023-05-23T02:15:33.439Z,98.00
2023-05-23T02:18:03.522Z,98.40
2023-05-23T02:20:31.826Z,97.90
2023-05-23T02:23:00.045Z,98.30
2023-05-23T02:25:28.266Z,95.80
2023-05-23T02:27:56.452Z,95.30
2023-05-23T02:30:24.591Z,94.80
2023-05-23T02:32:53.266Z,94.90
2023-05-23T02:35:23.909Z,95.50
2023-05-23T02:37:52.093Z,96.90
2023-05-23T02:40:20.259Z,97.00
2023-05-23T02:42:48.422Z,95.80
2023-05-23T02:45:16.582Z,96.30
2023-05-23T02:47:44.883Z,96.80
2023-05-23T02:50:13.303Z,95.90
2023-05-23T02:52:44.197Z,96.30
2023-05-23T02:55:12.400Z,97.60
2023-05-23T02:57:40.639Z,96.20
2023-05-23T03:00:11.861Z,96.40
2023-05-23T03:02:40.163Z,96.00
2023-05-23T03:05:09.341Z,96.10
2023-05-23T03:07:38.113Z,95.30
2023-05-23T03:10:11.541Z,95.50
2023-05-23T03:12:39.751Z,96.90
2023-05-23T03:15:08.823Z,97.60
2023-05-23T03:17:37.194Z,97.40
2023-05-23T03:20:09.740Z,97.70
2023-05-23T03:22:38.015Z,96.60
2023-05-23T03:25:08.858Z,95.60
2023-05-23T03:27:37.025Z,95.90
2023-05-23T03:30:06.012Z,93.40
2023-05-23T03:32:34.230Z,95.80
2023-05-23T03:35:02.425Z,94.40
2023-05-23T03:37:30.654Z,95.20
2023-05-23T03:39:58.836Z,95.20
2023-05-23T03:42:29.778Z,95.30
2023-05-23T03:44:57.971Z,93.80
2023-05-23T03:47:26.172Z,92.70
2023-05-23T03:49:54.420Z,92.60
2023-05-23T03:52:22.625Z,93.50
2023-05-23T03:54:50.807Z,92.40
2023-05-23T03:57:19.098Z,94.20
2023-05-23T03:59:48.756Z,94.40
2023-05-23T04:02:17.096Z,94.00
2023-05-23T04:04:45.361Z,95.40
2023-05-23T04:07:14.852Z,94.30
2023-05-23T04:09:43.056Z,94.20
2023-05-23T04:12:12.074Z,96.30
2023-05-23T04:14:40.578Z,95.20
2023-05-23T04:17:10.236Z,95.90
2023-05-23T04:19:38.607Z,94.30
2023-05-23T04:22:07.264Z,95.20
2023-05-23T04:24:35.725Z,94.10
2023-05-23T04:27:03.896Z,95.80
2023-05-23T04:29:33.330Z,94.40
2023-05-23T04:32:01.520Z,93.80
2023-05-23T04:34:33.853Z,93.70
2023-05-23T04:37:02.977Z,94.50
2023-05-23T04:39:31.483Z,93.90
2023-05-23T04:41:59.879Z,92.50
2023-05-23T04:44:30.396Z,93.70
2023-05-23T04:46:58.997Z,93.10
2023-05-23T04:49:27.230Z,93.00
2023-05-23T04:51:56.765Z,93.50
2023-05-23T04:54:24.935Z,95.20
2023-05-23T04:56:53.259Z,92.30
2023-05-23T04:59:21.554Z,94.60
2023-05-23T05:01:49.747Z,93.90
2023-05-23T05:04:18.069Z,93.60
2023-05-23T05:06:48.124Z,93.70
2023-05-23T05:09:17.681Z,94.50
2023-05-23T05:11:46.001Z,93.50
2023-05-23T05:14:14.192Z,93.50
2023-05-23T05:16:42.908Z,94.90
2023-05-23T05:19:11.252Z,94.30
2023-05-23T05:21:39.464Z,93.40
2023-05-23T05:24:09.634Z,93.30
2023-05-23T05:26:39.334Z,93.70
2023-05-23T05:29:07.484Z,93.40
2023-05-23T05:31:36.052Z,92.60
2023-05-23T05:34:04.278Z,93.00
2023-05-23T05:36:32.692Z,92.60
2023-05-23T05:39:00.908Z,91.70
2023-05-23T05:41:29.085Z,92.40
2023-05-23T05:43:58.626Z,93.10
2023-05-23T05:46:26.913Z,92.30
2023-05-23T05:48:55.102Z,94.30
2023-05-23T05:51:23.309Z,91.80
2023-05-23T05:53:51.459Z,92.40
2023-05-23T05:56:19.928Z,92.00
2023-05-23T05:58:48.080Z,90.80
2023-05-23T06:01:17.769Z,90.70
2023-05-23T06:03:46.187Z,91.00
2023-05-23T06:06:14.491Z,91.60
2023-05-23T06:08:43.501Z,91.50
2023-05-23T06:11:12.120Z,91.70
2023-05-23T06:13:40.711Z,92.00
2023-05-23T06:16:08.908Z,91.00
2023-05-23T06:18:38.741Z,90.90
2023-05-23T06:21:07.048Z,92.60
2023-05-23T06:23:35.230Z,92.30
2023-05-23T06:26:03.417Z,90.80
2023-05-23T06:28:31.573Z,92.70
2023-05-23T06:30:59.734Z,91.80
2023-05-23T06:33:27.863Z,92.10
2023-05-23T06:35:57.476Z,90.50
2023-05-23T06:38:28.110Z,87.70
2023-05-23T06:40:56.363Z,90.30
2023-05-23T06:43:24.557Z,87.90
2023-05-23T06:45:53.078Z,90.60
2023-05-23T06:48:21.368Z,88.90
2023-05-23T06:50:49.642Z,90.70
2023-05-23T06:53:19.430Z,90.00
2023-05-23T06:55:47.688Z,89.20
2023-05-23T06:58:16.040Z,90.00
2023-05-23T07:00:44.524Z,89.30
2023-05-23T07:03:12.788Z,90.80
2023-05-23T07:05:41.566Z,90.50
2023-05-23T07:08:11.058Z,91.20
2023-05-23T07:10:41.969Z,90.40
2023-05-23T07:13:10.593Z,91.30
2023-05-23T07:15:38.765Z,90.70
2023-05-23T07:18:07.025Z,88.30
2023-05-23T07:20:35.331Z,87.90
2023-05-23T07:23:03.556Z,87.00
2023-05-23T07:25:31.727Z,88.40
2023-05-23T07:28:01.294Z,86.10
2023-05-23T07:30:31.432Z,86.80
2023-05-23T07:33:01.859Z,86.50
2023-05-23T07:35:30.120Z,84.80
2023-05-23T07:37:58.351Z,82.00
2023-05-23T07:40:26.693Z,82.70
2023-05-23T07:42:55.875Z,79.70
2023-05-23T07:45:25.407Z,78.80
2023-05-23T07:47:54.017Z,78.20
2023-05-23T07:50:22.312Z,74.20
2023-05-23T07:52:51.383Z,71.00
2023-05-23T07:55:19.557Z,68.60
2023-05-23T07:57:47.759Z,69.00
2023-05-23T08:00:16.831Z,67.60
2023-05-23T08:02:46.417Z,65.00
2023-05-23T08:05:14.849Z,64.20
2023-05-23T08:07:43.051Z,67.40
2023-05-23T08:10:11.524Z,66.60
2023-05-23T08:12:39.708Z,63.00
2023-05-23T08:15:09.252Z,63.10
2023-05-23T08:17:37.790Z,63.40
2023-05-23T08:20:10.254Z,61.10
2023-05-23T08:22:38.490Z,62.60
2023-05-23T08:25:07.456Z,62.00
2023-05-23T08:27:36.773Z,64.50
2023-05-23T08:30:06.431Z,64.20
2023-05-23T08:32:34.608Z,63.00
2023-05-23T08:35:03.591Z,59.20
2023-05-23T08:37:33.211Z,58.50
2023-05-23T08:40:01.716Z,61.00
2023-05-23T08:42:30.134Z,58.60
2023-05-23T08:44:58.481Z,59.20
2023-05-23T08:47:27.200Z,58.90
2023-05-23T08:49:56.950Z,59.30
2023-05-23T08:52:28.855Z,57.80
2023-05-23T08:54:58.963Z,57.70
2023-05-23T08:57:27.325Z,58.50
2023-05-23T08:59:56.737Z,58.60
2023-05-23T09:02:25.905Z,58.90
2023-05-23T09:04:54.213Z,57.00
2023-05-23T09:07:22.696Z,57.40
2023-05-23T09:09:50.981Z,55.20
2023-05-23T09:12:22.458Z,53.00
2023-05-23T09:14:50.712Z,52.60
2023-05-23T09:17:20.138Z,52.80
2023-05-23T09:19:48.790Z,53.60
2023-05-23T09:22:16.968Z,51.50
2023-05-23T09:24:45.228Z,50.10
2023-05-23T09:27:13.388Z,50.80
2023-05-23T09:29:43.591Z,50.90
2023-05-23T09:32:15.927Z,49.80
2023-05-23T09:34:44.456Z,48.90
2023-05-23T09:37:19.214Z,48.20
2023-05-23T09:39:49.123Z,47.80
2023-05-23T09:42:22.384Z,48.60
2023-05-23T09:44:52.156Z,47.80
2023-05-23T09:47:20.478Z,47.10
2023-05-23T09:49:49.017Z,46.40
2023-05-23T09:52:20.212Z,45.50
2023-05-23T09:54:48.649Z,46.80
2023-05-23T09:57:18.133Z,46.70
2023-05-23T09:59:55.333Z,45.30
2023-05-23T10:02:54.969Z,45.60
2023-05-23T10:05:34.429Z,43.70
2023-05-23T10:08:07.392Z,46.10
2023-05-23T10:10:36.642Z,44.60
2023-05-23T10:13:06.995Z,44.40
2023-05-23T10:15:41.374Z,45.20
2023-05-23T10:18:17.722Z,45.20
2023-05-23T10:20:50.198Z,42.60
2023-05-23T10:23:19.343Z,45.70
2023-05-23T10:25:47.993Z,44.40
2023-05-23T10:28:17.255Z,44.20
2023-05-23T10:30:48.088Z,41.40
2023-05-23T10:33:17.900Z,42.90
2023-05-23T10:35:55.851Z,43.20
2023-05-23T10:38:34.129Z,45.10
2023-05-23T10:41:10.667Z,43.40
2023-05-23T10:43:50.226Z,41.40
2023-05-23T10:46:21.722Z,42.10
2023-05-23T10:48:55.070Z,41.40
2023-05-23T10:51:24.976Z,43.10
2023-05-23T10:53:55.732Z,41.70
2023-05-23T10:56:25.092Z,42.90
2023-05-23T10:58:55.165Z,42.20
2023-05-23T11:01:25.544Z,43.10
2023-05-23T11:03:55.990Z,44.20
2023-05-23T11:06:33.524Z,43.80
2023-05-23T11:09:07.198Z,43.70
2023-05-23T11:11:55.305Z,42.60
2023-05-23T11:14:33.859Z,42.40
2023-05-23T11:17:17.018Z,42.10
2023-05-23T11:19:59.648Z,42.10
2023-05-23T11:22:31.222Z,44.30
2023-05-23T11:25:00.372Z,42.30
2023-05-23T11:27:29.755Z,41.50
2023-05-23T11:30:03.944Z,41.40
2023-05-23T11:32:33.774Z,41.70
2023-05-23T11:35:02.494Z,40.80
2023-05-23T11:37:31.315Z,43.00
2023-05-23T11:39:59.951Z,41.20
2023-05-23T11:42:28.148Z,40.10
2023-05-23T11:44:56.409Z,39.50
2023-05-23T11:47:24.653Z,40.50
2023-05-23T11:49:54.705Z,39.80
2023-05-23T11:52:22.922Z,39.70
2023-05-23T11:54:53.004Z,39.50
2023-05-23T11:57:23.180Z,39.50
2023-05-23T11:59:52.701Z,39.30
2023-05-23T12:02:22.721Z,40.00
2023-05-23T12:04:51.001Z,40.70
2023-05-23T12:07:22.459Z,40.80
2023-05-23T12:09:50.732Z,40.00
2023-05-23T12:12:20.595Z,40.60
2023-05-23T12:14:48.843Z,38.20
2023-05-23T12:17:17.132Z,37.80
2023-05-23T12:19:48.014Z,38.40
2023-05-23T12:22:16.197Z,39.60
2023-05-23T12:24:48.590Z,37.40
2023-05-23T12:27:18.668Z,38.30
2023-05-23T12:29:52.740Z,38.40
2023-05-23T12:32:20.988Z,38.80
2023-05-23T12:34:50.959Z,39.00
2023-05-23T12:37:20.497Z,39.00
2023-05-23T12:39:50.446Z,38.60
2023-05-23T12:42:18.649Z,37.80
2023-05-23T12:44:48.677Z,37.80
2023-05-23T12:47:16.930Z,37.70
2023-05-23T12:49:47.071Z,37.00
2023-05-23T12:52:15.233Z,36.50
2023-05-23T12:54:43.419Z,35.50
2023-05-23T12:57:13.091Z,36.10
2023-05-23T12:59:41.269Z,36.70
2023-05-23T13:02:09.463Z,37.20
2023-05-23T13:04:37.648Z,35.60
2023-05-23T13:07:06.115Z,35.60
2023-05-23T13:09:34.291Z,36.90
2023-05-23T13:12:02.549Z,37.70
2023-05-23T13:14:32.344Z,35.70
2023-05-23T13:17:00.728Z,36.60
2023-05-23T13:19:29.267Z,36.90
2023-05-23T13:21:57.609Z,36.30
2023-05-23T13:24:25.780Z,36.10
2023-05-23T13:26:54.541Z,35.00
2023-05-23T13:29:22.770Z,34.50
2023-05-23T13:31:53.236Z,33.40
2023-05-23T13:34:21.876Z,34.90
2023-05-23T13:36:50.115Z,32.50
2023-05-23T13:39:19.796Z,32.40
2023-05-23T13:41:48.722Z,33.50
2023-05-23T13:44:16.925Z,33.40
2023-05-23T13:46:45.219Z,33.50
2023-05-23T13:49:14.813Z,33.70
2023-05-23T13:51:43.602Z,36.30
2023-05-23T13:54:11.869Z,35.30
2023-05-23T13:56:40.526Z,32.90
2023-05-23T13:59:08.764Z,33.90
2023-05-23T14:01:36.950Z,33.10
2023-05-23T14:04:07.029Z,33.30
2023-05-23T14:06:36.940Z,34.20
2023-05-23T14:09:05.471Z,33.70
2023-05-23T14:11:33.879Z,34.00
2023-05-23T14:14:02.088Z,33.70
2023-05-23T14:16:30.413Z,34.00
2023-05-23T14:18:58.783Z,34.00
2023-05-23T14:21:28.220Z,34.40
2023-05-23T14:23:57.795Z,34.50
2023-05-23T14:26:26.496Z,34.90
2023-05-23T14:28:54.710Z,33.50
2023-05-23T14:31:23.172Z,33.30
2023-05-23T14:33:51.478Z,35.90
2023-05-23T14:36:19.664Z,33.90
2023-05-23T14:38:47.868Z,33.30
2023-05-23T14:41:17.638Z,31.60
2023-05-23T14:43:46.137Z,30.10
2023-05-23T14:46:15.533Z,31.20
2023-05-23T14:48:43.804Z,29.60
2023-05-23T14:51:20.712Z,30.00
2023-05-23T14:53:55.612Z,30.00
2023-05-23T14:56:27.143Z,31.60
2023-05-23T14:58:57.369Z,31.60
2023-05-23T15:01:25.804Z,31.70
2023-05-23T15:03:54.125Z,30.90
2023-05-23T15:06:22.548Z,30.10
2023-05-23T15:08:50.688Z,30.00
2023-05-23T15:11:19.048Z,30.30
2023-05-23T15:13:48.632Z,31.20
2023-05-23T15:16:18.002Z,32.10
2023-05-23T15:18:46.309Z,30.30
2023-05-23T15:21:14.655Z,28.00
2023-05-23T15:23:42.841Z,28.70
2023-05-23T15:26:11.056Z,29.70
2023-05-23T15:28:39.233Z,29.80
2023-05-23T15:31:08.808Z,28.90
2023-05-23T15:33:36.979Z,28.40
2023-05-23T15:36:05.352Z,27.90
2023-05-23T15:38:33.585Z,29.00
2023-05-23T15:41:02.446Z,28.90
2023-05-23T15:43:31.031Z,28.80
2023-05-23T15:45:59.323Z,28.70
2023-05-23T15:48:29.092Z,28.80
2023-05-23T15:50:57.254Z,30.30
2023-05-23T15:53:25.470Z,29.10
2023-05-23T15:55:53.724Z,29.30
2023-05-23T15:58:21.898Z,28.80
2023-05-23T16:00:50.161Z,30.00
2023-05-23T16:03:18.727Z,29.10
2023-05-23T16:05:48.347Z,29.50
2023-05-23T16:08:16.545Z,29.20
2023-05-23T16:10:44.859Z,29.00
2023-05-23T16:13:13.074Z,30.10
2023-05-23T16:15:41.414Z,29.40
2023-05-23T16:18:09.820Z,29.80
2023-05-23T16:20:38.017Z,30.20
2023-05-23T16:23:07.538Z,30.00
2023-05-23T16:25:35.916Z,29.80
2023-05-23T16:28:04.083Z,29.30
2023-05-23T16:30:32.645Z,28.40
2023-05-23T16:33:01.132Z,29.20
2023-05-23T16:35:29.400Z,29.80
2023-05-23T16:37:57.632Z,29.70
2023-05-23T16:40:27.174Z,30.10
2023-05-23T16:42:55.480Z,29.20
2023-05-23T16:45:23.898Z,30.50
2023-05-23T16:47:52.191Z,30.70
2023-05-23T16:50:20.373Z,30.90
2023-05-23T16:52:48.573Z,31.00
2023-05-23T16:55:17.034Z,31.80
2023-05-23T16:57:46.552Z,32.40
2023-05-23T17:00:15.980Z,32.50
2023-05-23T17:02:44.939Z,34.30
2023-05-23T17:05:16.104Z,34.50
2023-05-23T17:07:44.668Z,33.80
2023-05-23T17:10:12.930Z,34.70
2023-05-23T17:12:41.122Z,35.00
2023-05-23T17:15:12.024Z,35.10
2023-05-23T17:17:40.285Z,34.60
2023-05-23T17:20:10.148Z,35.50
2023-05-23T17:22:38.678Z,36.50
2023-05-23T17:25:07.646Z,36.40
2023-05-23T17:27:35.857Z,38.10
2023-05-23T17:30:05.631Z,37.30
2023-05-23T17:32:35.450Z,38.40
2023-05-23T17:35:03.659Z,37.20
2023-05-23T17:37:31.813Z,39.70
2023-05-23T17:40:00.029Z,40.10
2023-05-23T17:42:28.270Z,39.90
2023-05-23T17:44:56.433Z,39.80
2023-05-23T17:47:24.664Z,39.90
2023-05-23T17:49:54.281Z,39.90
2023-05-23T17:52:22.471Z,40.20
2023-05-23T17:54:50.694Z,41.10
2023-05-23T17:57:19.012Z,41.20
2023-05-23T17:59:47.339Z,40.30
2023-05-23T18:02:15.523Z,40.60
2023-05-23T18:04:44.011Z,40.80
2023-05-23T18:07:15.081Z,41.50
2023-05-23T18:09:43.290Z,41.00
2023-05-23T18:12:11.613Z,41.30
2023-05-23T18:14:40.115Z,41.60
2023-05-23T18:17:09.933Z,42.40
2023-05-23T18:19:38.322Z,42.20
2023-05-23T18:22:06.896Z,43.90
2023-05-23T18:24:36.527Z,44.00
2023-05-23T18:27:05.017Z,44.70
2023-05-23T18:29:33.244Z,44.40
2023-05-23T18:32:01.446Z,44.70
2023-05-23T18:34:29.668Z,45.10
2023-05-23T18:36:57.866Z,45.10
2023-05-23T18:39:28.470Z,45.50
2023-05-23T18:41:58.797Z,45.80
2023-05-23T18:44:27.365Z,46.40
2023-05-23T18:46:55.658Z,46.30
2023-05-23T18:49:23.926Z,47.30
2023-05-23T18:51:54.397Z,46.70
2023-05-23T18:54:22.648Z,47.10
2023-05-23T18:56:50.874Z,48.60
2023-05-23T18:59:20.918Z,48.30
2023-05-23T19:01:49.171Z,49.60
2023-05-23T19:04:18.210Z,48.80
2023-05-23T19:06:49.577Z,50.20
2023-05-23T19:09:17.792Z,50.70
2023-05-23T19:11:45.960Z,50.60
2023-05-23T19:14:14.243Z,51.10
2023-05-23T19:16:43.878Z,51.40
2023-05-23T19:19:14.562Z,52.40
2023-05-23T19:21:42.881Z,52.10
2023-05-23T19:24:11.286Z,52.40
2023-05-23T19:26:42.388Z,52.80
2023-05-23T19:29:11.527Z,53.20
2023-05-23T19:31:40.046Z,53.70
2023-05-23T19:34:09.684Z,53.60
2023-05-23T19:36:38.080Z,54.40
2023-05-23T19:39:07.089Z,53.80
2023-05-23T19:41:35.276Z,54.60
2023-05-23T19:44:03.493Z,54.30
2023-05-23T19:46:31.809Z,54.80
2023-05-23T19:49:00.148Z,55.30
2023-05-23T19:51:30.235Z,56.00
2023-05-23T19:53:58.450Z,56.60
2023-05-23T19:56:27.553Z,56.90
2023-05-23T19:58:55.751Z,56.20
2023-05-23T20:01:24.038Z,57.20
2023-05-23T20:03:52.398Z,57.00
2023-05-23T20:06:20.873Z,57.40
2023-05-23T20:08:50.522Z,57.50
2023-05-23T20:11:18.782Z,57.60
2023-05-23T20:13:47.012Z,56.80
2023-05-23T20:16:15.298Z,56.90
2023-05-23T20:18:47.390Z,57.70
2023-05-23T20:21:15.661Z,58.10
2023-05-23T20:23:45.188Z,58.10
2023-05-23T20:26:14.813Z,57.40
2023-05-23T20:28:42.996Z,58.10
2023-05-23T20:31:11.555Z,57.50
2023-05-23T20:33:39.802Z,57.00
2023-05-23T20:36:09.017Z,58.20
2023-05-23T20:38:37.221Z,57.50
2023-05-23T20:41:07.556Z,58.80
2023-05-23T20:43:38.225Z,60.40
2023-05-23T20:46:06.904Z,58.30
2023-05-23T20:48:35.387Z,58.30
2023-05-23T20:51:05.688Z,57.80
2023-05-23T20:53:33.983Z,58.30
2023-05-23T20:56:02.740Z,57.80
2023-05-23T20:58:31.014Z,58.00
2023-05-23T21:01:00.728Z,57.90
2023-05-23T21:03:29.135Z,57.40
2023-05-23T21:05:57.513Z,57.70
2023-05-23T21:08:25.774Z,57.10
2023-05-23T21:10:54.849Z,56.70
2023-05-23T21:13:23.462Z,57.30
2023-05-23T21:15:51.788Z,57.30
2023-05-23T21:18:22.474Z,57.60
2023-05-23T21:20:51.217Z,57.00
2023-05-23T21:23:19.395Z,57.00
2023-05-23T21:25:47.596Z,57.80
2023-05-23T21:28:15.853Z,58.40
2023-05-23T21:30:44.658Z,56.50
2023-05-23T21:33:13.072Z,57.60
2023-05-23T21:35:42.817Z,57.50
2023-05-23T21:38:11.177Z,57.20
2023-05-23T21:40:39.451Z,58.00
2023-05-23T21:43:07.702Z,57.30
2023-05-23T21:45:35.896Z,57.60
2023-05-23T21:48:04.230Z,58.60
2023-05-23T21:50:32.474Z,59.50
2023-05-23T21:53:02.025Z,59.50
2023-05-23T21:55:30.276Z,60.30
2023-05-23T21:57:58.480Z,60.50
2023-05-23T22:00:27.403Z,60.20
2023-05-23T22:02:55.673Z,59.30
2023-05-23T22:05:23.954Z,59.50
2023-05-23T22:07:52.283Z,58.60
2023-05-23T22:10:21.906Z,59.10
2023-05-23T22:12:50.102Z,62.20
2023-05-23T22:15:18.411Z,60.90
2023-05-23T22:17:46.964Z,61.40
2023-05-23T22:20:16.112Z,60.80
2023-05-23T22:22:44.426Z,61.50
2023-05-23T22:25:12.639Z,61.80
2023-05-23T22:27:42.335Z,61.70
2023-05-23T22:30:11.421Z,63.00
2023-05-23T22:32:39.701Z,61.90
2023-05-23T22:35:08.619Z,61.40
2023-05-23T22:37:36.867Z,62.40
2023-05-23T22:40:06.636Z,61.60
2023-05-23T22:42:34.878Z,62.90
2023-05-23T22:45:04.746Z,62.00
2023-05-23T22:47:33.430Z,61.60
2023-05-23T22:50:02.210Z,62.50
2023-05-23T22:52:31.231Z,64.00
2023-05-23T22:54:59.510Z,62.40
2023-05-23T22:57:27.786Z,62.40
2023-05-23T22:59:56.100Z,64.00
2023-05-23T23:02:25.956Z,63.50
2023-05-23T23:04:54.289Z,64.00
2023-05-23T23:07:22.515Z,63.30
2023-05-23T23:09:50.785Z,63.70
2023-05-23T23:12:19.090Z,63.40
2023-05-23T23:14:47.451Z,64.40
2023-05-23T23:17:16.435Z,64.00
2023-05-23T23:19:46.958Z,64.80
2023-05-23T23:22:15.166Z,65.40
2023-05-23T23:24:43.386Z,67.20
2023-05-23T23:27:11.670Z,67.00
2023-05-23T23:29:39.884Z,66.70
2023-05-23T23:32:08.388Z,67.00
2023-05-23T23:34:36.654Z,67.70
2023-05-23T23:37:06.526Z,68.30
2023-05-23T23:39:34.743Z,68.20
2023-05-23T23:42:03.552Z,68.20
2023-05-23T23:44:31.985Z,68.00
2023-05-23T23:47:00.156Z,68.50
2023-05-23T23:49:28.420Z,68.40
2023-05-23T23:51:56.661Z,67.40
2023-05-23T23:54:26.461Z,69.80
2023-05-23T23:56:54.722Z,68.20
2023-05-23T23:59:23.088Z,68.00
